This is the latest recevied weather packets stored in our database for station/object ALTO-WX. If no packets are shown the sender has not sent any weather packets the latest 1 day(s).
| Time | Temp. | Humidity | Pressure | Rain* | Wind** | Luminosity | Snow |
|---|---|---|---|---|---|---|---|
| 1778040936 | 6.11° C | 66% | 979.8 hPa | 0 mm | 2.24 m/s, 288° | - | - |
| 1778040072 | 6.67° C | 66% | 979.8 hPa | 0 mm | 2.24 m/s, 284° | - | - |
| 1778039145 | 6.67° C | 59% | 979.5 hPa | 0 mm | 2.68 m/s, 266° | - | - |
| 1778037335 | 6.67° C | 59% | 979.4 hPa | 0 mm | 1.34 m/s, 257° | - | - |
| 1778036473 | 7.22° C | 59% | 979.4 hPa | 0 mm | 2.24 m/s, 288° | - | - |
| 1778035535 | 7.22° C | 51% | 979.5 hPa | 0 mm | 2.68 m/s, 280° | - | - |
| 1778034653 | 7.22° C | 49% | 979.6 hPa | 0 mm | 1.79 m/s, 275° | - | - |
| 1778033734 | 7.22° C | 49% | 979.6 hPa | 0 mm | 2.24 m/s, 287° | - | - |
| 1778032858 | 7.78° C | 49% | 979.6 hPa | 0 mm | 2.24 m/s, 288° | - | - |
| 1778031934 | 7.78° C | 44% | 979.3 hPa | 0 mm | 1.79 m/s, 297° | - | - |
| 1778031055 | 8.33° C | 44% | 979.3 hPa | 0 mm | 2.24 m/s, 288° | - | - |
| 1778030134 | 8.33° C | 44% | 979.4 hPa | 0 mm | 2.24 m/s, 285° | - | - |
| 1778029260 | 8.89° C | 44% | 979.4 hPa | 0 mm | 2.24 m/s, 285° | - | - |
| 1778028333 | 9.44° C | 38% | 979.3 hPa | 0 mm | 2.24 m/s, 293° | - | - |
| 1778027449 | 9.44° C | 38% | 979.5 hPa | 0 mm | 2.68 m/s, 294° | - | - |
| 1778026534 | 10° C | 38% | 979.5 hPa | 0 mm | 3.13 m/s, 295° | - | - |
| 1778025666 | 10° C | 38% | 979.5 hPa | 0 mm | 3.58 m/s, 296° | - | - |
| 1778024734 | 10.56° C | 35% | 979.2 hPa | 0 mm | 4.02 m/s, 296° | - | - |
| 1778023851 | 10.56° C | 34% | 979.2 hPa | 0 mm | 4.47 m/s, 293° | - | - |
| 1778022935 | 11.11° C | 34% | 979.2 hPa | 0 mm | 4.92 m/s, 292° | - | - |
| 1778022061 | 11.11° C | 34% | 979.2 hPa | 0 mm | 4.92 m/s, 291° | - | - |
| 1778021134 | 11.11° C | 34% | 979.2 hPa | 0 mm | 5.36 m/s, 289° | - | - |
| 1778020253 | 11.11° C | 38% | 979.5 hPa | 0 mm | 5.36 m/s, 283° | - | - |
| 1778019334 | 11.67° C | 38% | 979.5 hPa | 0 mm | 5.81 m/s, 280° | - | - |
| 1778018464 | 11.67° C | 38% | 979.5 hPa | 0 mm | 6.26 m/s, 279° | - | - |
* Rain latest hour (hover to see other rain measurements)
** Current wind speed in m/s (hover to see current wind gust speed)